METAR Data
IDs: Format: Raw Decoded Include TAF

Data at: 0726 UTC 28 Sep 2022

METAR for:EDVE (Braunschweig Arpt, NI, DE)
Text:EDVE 280720Z 11003KT 9000 -RA FEW030 OVC042 08/07 Q0994
Temperature: 8.0°C ( 46°F)
Dewpoint: 7.0°C ( 45°F) [RH = 93%]
Pressure (altimeter):29.35 inches Hg ( 994.0 mb)
Winds:from the ESE (110 degrees) at 3 MPH (3 knots; 1.5 m/s)
Visibility: 6 sm ( 9 km)
Ceiling:4200 feet AGL
Clouds: few clouds at 3000 feet AGL, overcast cloud deck at 4200 feet AGL
Weather:-RA (light rain)